Death Valley, California
Current Conditions -  °F | °C
As of 1:52 AM on Saturday 20 Dec 2014 (Local Time) from KDRA Reporting Station
Clear Clear  
Wind Chill: 37°   Ceiling: Unl
Heat Index: 37°   Visibility: 10mi
Dew Point: 34°   Wind: 3mph
Humidity: 89%   Direction: 80°E
Pressure: 30.16"   Gusts: NA
Location:  36.46°N, 116.87°W
Report Text: KDRA 200952Z AUTO 08003KT 10SM CLR 03/01 A3016 RMK AO2 SLP203 T00280011 $
Loading
Personal Weather Stations






























Interactive Weather Map New forecast layout! Learn more

10-Day Weather Forecast

Advertisements
Track Severe Weather on mobile